createdAt,value
2022-09-01T00:00:53.881Z,13.30
2022-09-01T00:01:55.688Z,13.27
2022-09-01T00:02:57.894Z,13.26
2022-09-01T00:04:03.274Z,13.25
2022-09-01T00:05:07.493Z,13.25
2022-09-01T00:06:10.278Z,13.23
2022-09-01T00:07:14.736Z,13.23
2022-09-01T00:08:18.692Z,13.21
2022-09-01T00:09:23.370Z,13.19
2022-09-01T00:10:25.049Z,13.18
2022-09-01T00:11:29.181Z,13.17
2022-09-01T00:12:31.062Z,13.15
2022-09-01T00:13:33.979Z,13.14
2022-09-01T00:14:41.644Z,13.11
2022-09-01T00:15:44.090Z,13.08
2022-09-01T00:16:45.912Z,13.06
2022-09-01T00:17:51.844Z,13.04
2022-09-01T00:18:54.911Z,13.02
2022-09-01T00:19:56.622Z,13.01
2022-09-01T00:20:59.596Z,13.00
2022-09-01T00:22:02.545Z,12.99
2022-09-01T00:23:04.491Z,12.98
2022-09-01T00:24:06.809Z,12.98
2022-09-01T00:25:09.256Z,12.97
2022-09-01T00:26:11.798Z,12.97
2022-09-01T00:27:13.517Z,12.97
2022-09-01T00:28:15.238Z,12.97
2022-09-01T00:29:17.160Z,12.96
2022-09-01T00:30:19.821Z,12.95
2022-09-01T00:31:22.737Z,12.94
2022-09-01T00:32:25.343Z,12.92
2022-09-01T00:33:27.544Z,12.90
2022-09-01T00:34:29.190Z,12.88
2022-09-01T00:35:30.866Z,12.87
2022-09-01T00:36:38.517Z,12.85
2022-09-01T00:37:40.321Z,12.83
2022-09-01T00:38:43.155Z,12.83
2022-09-01T00:39:44.862Z,12.82
2022-09-01T00:40:47.039Z,12.81
2022-09-01T00:41:50.747Z,12.80
2022-09-01T00:42:53.778Z,12.80
2022-09-01T00:43:59.296Z,12.80
2022-09-01T00:45:00.935Z,12.79
2022-09-01T00:46:05.881Z,12.79
2022-09-01T00:47:10.882Z,12.79
2022-09-01T00:48:15.060Z,12.79
2022-09-01T00:49:38.757Z,12.76
2022-09-01T00:50:42.132Z,12.73
2022-09-01T00:51:49.125Z,12.70
2022-09-01T00:52:55.562Z,12.68
2022-09-01T00:54:00.136Z,12.66
2022-09-01T00:55:13.067Z,12.65
2022-09-01T00:56:15.820Z,12.65
2022-09-01T00:57:17.846Z,12.64
2022-09-01T00:58:21.230Z,12.64
2022-09-01T00:59:26.288Z,12.63
2022-09-01T01:00:31.019Z,12.63
2022-09-01T01:01:35.467Z,12.62
2022-09-01T01:02:39.000Z,12.62
2022-09-01T01:03:42.538Z,12.61
2022-09-01T01:04:44.304Z,12.59
2022-09-01T01:05:55.703Z,12.58
2022-09-01T01:07:02.273Z,12.57
2022-09-01T01:08:05.010Z,12.55
2022-09-01T01:09:06.805Z,12.54
2022-09-01T01:10:11.961Z,12.53
2022-09-01T01:11:18.752Z,12.52
2022-09-01T01:12:21.651Z,12.52
2022-09-01T01:13:25.991Z,12.51
2022-09-01T01:14:31.887Z,12.51
2022-09-01T01:15:33.847Z,12.50
2022-09-01T01:16:35.917Z,12.50
2022-09-01T01:17:38.325Z,12.49
2022-09-01T01:18:39.998Z,12.47
2022-09-01T01:20:13.883Z,12.46
2022-09-01T01:21:38.875Z,12.43
2022-09-01T01:23:05.687Z,12.41
2022-09-01T01:24:34.714Z,12.39
2022-09-01T01:25:44.675Z,12.35
2022-09-01T01:26:48.151Z,12.33
2022-09-01T01:27:50.935Z,12.32
2022-09-01T01:28:54.353Z,12.31
2022-09-01T01:29:57.665Z,12.29
2022-09-01T01:31:06.005Z,12.28
2022-09-01T01:32:13.112Z,12.28
2022-09-01T01:33:15.368Z,12.27
2022-09-01T01:34:18.458Z,12.27
2022-09-01T01:35:21.840Z,12.27
2022-09-01T01:36:32.617Z,12.28
2022-09-01T01:37:36.302Z,12.27
2022-09-01T01:38:38.452Z,12.28
2022-09-01T01:39:43.851Z,12.28
2022-09-01T01:40:45.836Z,12.27
2022-09-01T01:41:50.713Z,12.26
2022-09-01T01:42:54.313Z,12.25
2022-09-01T01:44:04.367Z,12.25
2022-09-01T01:45:08.146Z,12.25
2022-09-01T01:46:12.002Z,12.25
2022-09-01T01:47:14.290Z,12.25
2022-09-01T01:48:22.739Z,12.24
2022-09-01T01:49:29.225Z,12.26
2022-09-01T01:50:35.931Z,12.29
2022-09-01T01:51:38.101Z,12.33
2022-09-01T01:52:40.369Z,12.33
2022-09-01T01:53:52.638Z,12.33
2022-09-01T01:54:54.679Z,12.33
2022-09-01T01:55:58.414Z,12.32
2022-09-01T01:57:04.483Z,12.31
2022-09-01T01:58:09.836Z,12.29
2022-09-01T01:59:16.499Z,12.27
2022-09-01T02:00:27.093Z,12.25
2022-09-01T02:01:32.142Z,12.23
2022-09-01T02:02:34.187Z,12.22
2022-09-01T02:03:38.477Z,12.20
2022-09-01T02:04:41.626Z,12.20
2022-09-01T02:05:44.282Z,12.20
2022-09-01T02:06:48.265Z,12.19
2022-09-01T02:07:55.938Z,12.20
2022-09-01T02:09:03.727Z,12.21
2022-09-01T02:10:06.178Z,12.21
2022-09-01T02:11:08.886Z,12.20
2022-09-01T02:12:11.058Z,12.17
2022-09-01T02:13:20.876Z,12.14
2022-09-01T02:14:23.472Z,12.11
2022-09-01T02:15:25.533Z,12.07
2022-09-01T02:16:30.236Z,12.05
2022-09-01T02:17:32.052Z,12.02
2022-09-01T02:18:37.943Z,11.99
2022-09-01T02:19:43.265Z,11.97
2022-09-01T02:20:50.308Z,11.95
2022-09-01T02:21:56.051Z,11.93
2022-09-01T02:22:57.734Z,11.91
2022-09-01T02:24:03.626Z,11.89
2022-09-01T02:25:06.653Z,11.87
2022-09-01T02:26:16.685Z,11.84
2022-09-01T02:27:23.273Z,11.82
2022-09-01T02:28:28.505Z,11.79
2022-09-01T02:29:30.352Z,11.77
2022-09-01T02:30:37.775Z,11.74
2022-09-01T02:31:39.866Z,11.69
2022-09-01T02:32:41.856Z,11.67
2022-09-01T02:33:47.017Z,11.64
2022-09-01T02:34:53.578Z,11.62
2022-09-01T02:36:00.883Z,11.59
2022-09-01T02:37:03.270Z,11.56
2022-09-01T02:38:05.317Z,11.54
2022-09-01T02:39:08.137Z,11.51
2022-09-01T02:40:10.550Z,11.50
2022-09-01T02:41:14.288Z,11.48
2022-09-01T02:42:16.301Z,11.47
2022-09-01T02:43:20.349Z,11.46
2022-09-01T02:44:23.095Z,11.48
2022-09-01T02:45:24.848Z,11.49
2022-09-01T02:46:26.740Z,11.46
2022-09-01T02:47:28.553Z,11.43
2022-09-01T02:48:32.949Z,11.40
2022-09-01T02:49:36.026Z,11.36
2022-09-01T02:50:39.681Z,11.34
2022-09-01T02:51:47.238Z,11.31
2022-09-01T02:52:50.985Z,11.29
2022-09-01T02:53:53.424Z,11.27
2022-09-01T02:54:55.550Z,11.27
2022-09-01T02:55:59.494Z,11.25
2022-09-01T02:57:01.426Z,11.23
2022-09-01T02:58:04.330Z,11.21
2022-09-01T02:59:06.105Z,11.19
2022-09-01T03:00:20.750Z,11.18
2022-09-01T03:01:31.471Z,11.14
2022-09-01T03:02:35.896Z,11.13
2022-09-01T03:03:38.935Z,11.11
2022-09-01T03:04:41.181Z,11.09
2022-09-01T03:05:43.903Z,11.06
2022-09-01T03:06:46.826Z,11.04
2022-09-01T03:07:54.081Z,11.02
2022-09-01T03:09:00.159Z,11.00
2022-09-01T03:10:03.336Z,10.99
2022-09-01T03:11:13.289Z,10.97
2022-09-01T03:12:15.402Z,10.95
2022-09-01T03:13:21.875Z,10.94
2022-09-01T03:14:24.324Z,10.92
2022-09-01T03:15:27.394Z,10.90
2022-09-01T03:16:33.448Z,10.88
2022-09-01T03:17:35.333Z,10.87
2022-09-01T03:18:38.427Z,10.85
2022-09-01T03:19:44.290Z,10.83
2022-09-01T03:20:48.357Z,10.79
2022-09-01T03:21:50.137Z,10.80
2022-09-01T03:22:57.936Z,10.78
2022-09-01T03:24:02.002Z,10.76
2022-09-01T03:25:04.595Z,10.75
2022-09-01T03:26:06.284Z,10.74
2022-09-01T03:27:08.916Z,10.73
2022-09-01T03:28:13.066Z,10.73
2022-09-01T03:29:15.395Z,10.72
2022-09-01T03:30:17.526Z,10.71
2022-09-01T03:31:21.565Z,10.69
2022-09-01T03:32:24.650Z,10.68
2022-09-01T03:33:28.638Z,10.67
2022-09-01T03:34:34.377Z,10.66
2022-09-01T03:35:36.787Z,10.64
2022-09-01T03:36:39.829Z,10.62
2022-09-01T03:37:44.326Z,10.61
2022-09-01T03:38:51.376Z,10.59
2022-09-01T03:39:56.427Z,10.57
2022-09-01T03:41:04.440Z,10.57
2022-09-01T03:42:09.032Z,10.56
2022-09-01T03:43:11.977Z,10.55
2022-09-01T03:44:16.214Z,10.55
2022-09-01T03:45:20.392Z,10.54
2022-09-01T03:46:24.323Z,10.54
2022-09-01T03:47:27.283Z,10.54
2022-09-01T03:48:32.210Z,10.55
2022-09-01T03:49:34.066Z,10.54
2022-09-01T03:50:47.357Z,10.53
2022-09-01T03:51:49.260Z,10.52
2022-09-01T03:52:58.695Z,10.51
2022-09-01T03:54:00.736Z,10.49
2022-09-01T03:55:02.471Z,10.49
2022-09-01T03:56:05.477Z,10.47
2022-09-01T03:57:09.944Z,10.45
2022-09-01T03:58:18.953Z,10.45
2022-09-01T03:59:22.617Z,10.44
2022-09-01T04:00:29.797Z,10.44
2022-09-01T04:01:37.893Z,10.45
2022-09-01T04:02:40.017Z,10.45
2022-09-01T04:03:42.664Z,10.45
2022-09-01T04:04:44.376Z,10.44
2022-09-01T04:05:46.197Z,10.44
2022-09-01T04:06:48.058Z,10.44
2022-09-01T04:07:50.310Z,10.45
2022-09-01T04:08:57.768Z,10.43
2022-09-01T04:09:59.484Z,10.42
2022-09-01T04:11:10.612Z,10.40
2022-09-01T04:12:15.724Z,10.39
2022-09-01T04:13:32.277Z,10.37
2022-09-01T04:14:34.942Z,10.36
2022-09-01T04:15:38.489Z,10.36
2022-09-01T04:16:59.201Z,10.36
2022-09-01T04:18:10.582Z,10.36
2022-09-01T04:19:25.590Z,10.37
2022-09-01T04:20:28.587Z,10.38
2022-09-01T04:21:31.951Z,10.38
2022-09-01T04:22:35.414Z,10.38
2022-09-01T04:23:37.286Z,10.39
2022-09-01T04:24:45.419Z,10.39
2022-09-01T04:25:50.377Z,10.39
2022-09-01T04:26:54.534Z,10.39
2022-09-01T04:27:57.091Z,10.38
2022-09-01T04:28:59.180Z,10.39
2022-09-01T04:30:01.466Z,10.40
2022-09-01T04:31:09.197Z,10.42
2022-09-01T04:32:13.100Z,10.44
2022-09-01T04:33:18.547Z,10.46
2022-09-01T04:34:22.705Z,10.47
2022-09-01T04:35:32.964Z,10.48
2022-09-01T04:36:43.543Z,10.51
2022-09-01T04:37:46.173Z,10.53
2022-09-01T04:38:54.491Z,10.55
2022-09-01T04:39:57.668Z,10.57
2022-09-01T04:41:06.515Z,10.60
2022-09-01T04:42:09.246Z,10.63
2022-09-01T04:43:11.336Z,10.64
2022-09-01T04:44:19.195Z,10.66
2022-09-01T04:45:24.900Z,10.68
2022-09-01T04:46:31.347Z,10.70
2022-09-01T04:47:36.253Z,10.73
2022-09-01T04:48:46.000Z,10.75
2022-09-01T04:49:49.192Z,10.78
2022-09-01T04:50:52.054Z,10.80
2022-09-01T04:52:00.653Z,10.83
2022-09-01T04:53:06.125Z,10.86
2022-09-01T04:54:14.287Z,10.89
2022-09-01T04:55:17.852Z,10.92
2022-09-01T04:56:22.943Z,10.95
2022-09-01T04:57:50.058Z,10.98
2022-09-01T04:58:56.475Z,11.00
2022-09-01T04:59:58.521Z,11.02
2022-09-01T05:01:06.332Z,11.03
2022-09-01T05:02:09.525Z,11.04
2022-09-01T05:03:11.542Z,11.06
2022-09-01T05:04:34.302Z,11.09
2022-09-01T05:05:45.143Z,11.11
2022-09-01T05:06:50.021Z,11.14
2022-09-01T05:07:55.308Z,11.17
2022-09-01T05:08:57.909Z,11.19
2022-09-01T05:10:19.917Z,11.22
2022-09-01T05:12:15.729Z,11.27
2022-09-01T05:13:23.495Z,11.30
2022-09-01T05:14:26.032Z,11.33
2022-09-01T05:15:29.699Z,11.35
2022-09-01T05:16:32.445Z,11.37
2022-09-01T05:17:38.556Z,11.39
2022-09-01T05:18:47.481Z,11.41
2022-09-01T05:19:50.576Z,11.42
2022-09-01T05:20:53.263Z,11.45
2022-09-01T05:21:58.321Z,11.46
2022-09-01T05:23:00.518Z,11.47
2022-09-01T05:24:05.025Z,11.48
2022-09-01T05:25:13.291Z,11.49
2022-09-01T05:26:22.190Z,11.51
2022-09-01T05:27:24.284Z,11.53
2022-09-01T05:28:27.071Z,11.55
2022-09-01T05:29:29.651Z,11.56
2022-09-01T05:30:36.844Z,11.58
2022-09-01T05:31:41.289Z,11.62
2022-09-01T05:32:43.622Z,11.66
2022-09-01T05:33:48.289Z,11.69
2022-09-01T05:34:51.826Z,11.71
2022-09-01T05:36:01.169Z,11.76
2022-09-01T05:37:06.414Z,11.78
2022-09-01T05:38:11.002Z,11.80
2022-09-01T05:39:12.937Z,11.83
2022-09-01T05:40:16.346Z,11.85
2022-09-01T05:41:21.041Z,11.85
2022-09-01T05:42:22.988Z,11.89
2022-09-01T05:43:27.802Z,11.92
2022-09-01T05:44:29.677Z,11.96
2022-09-01T05:45:44.916Z,11.98
2022-09-01T05:46:55.808Z,12.04
2022-09-01T05:47:59.714Z,12.07
2022-09-01T05:49:02.616Z,12.11
2022-09-01T05:50:11.016Z,12.15
2022-09-01T05:51:42.660Z,12.19
2022-09-01T05:52:44.835Z,12.23
2022-09-01T05:53:51.349Z,12.25
2022-09-01T05:54:55.454Z,12.27
2022-09-01T05:55:57.457Z,12.28
2022-09-01T05:57:17.530Z,12.31
2022-09-01T05:58:21.505Z,12.37
2022-09-01T05:59:24.868Z,12.42
2022-09-01T06:00:34.712Z,12.48
2022-09-01T06:01:41.157Z,12.52
2022-09-01T06:02:43.400Z,12.53
2022-09-01T06:03:55.653Z,12.55
2022-09-01T06:05:00.271Z,12.57
2022-09-01T06:06:09.249Z,12.61
2022-09-01T06:07:16.639Z,12.63
2022-09-01T06:08:28.951Z,12.64
2022-09-01T06:09:30.779Z,12.66
2022-09-01T06:10:35.504Z,12.72
2022-09-01T06:11:38.065Z,12.75
2022-09-01T06:12:40.739Z,12.78
2022-09-01T06:13:42.625Z,12.78
2022-09-01T06:14:46.185Z,12.79
2022-09-01T06:15:51.026Z,12.79
2022-09-01T06:16:54.197Z,12.79
2022-09-01T06:17:57.408Z,12.81
2022-09-01T06:18:59.549Z,12.85
2022-09-01T06:20:01.991Z,12.89
2022-09-01T06:21:08.356Z,12.93
2022-09-01T06:22:11.237Z,12.95
2022-09-01T06:23:15.275Z,12.94
2022-09-01T06:24:18.103Z,12.95
2022-09-01T06:25:21.322Z,12.97
2022-09-01T06:26:27.646Z,13.01
2022-09-01T06:27:30.082Z,13.07
2022-09-01T06:28:31.893Z,13.09
2022-09-01T06:29:34.186Z,13.12
2022-09-01T06:30:36.497Z,13.13
2022-09-01T06:31:43.363Z,13.15
2022-09-01T06:32:45.549Z,13.17
2022-09-01T06:33:48.344Z,13.20
2022-09-01T06:34:51.252Z,13.23
2022-09-01T06:35:53.998Z,13.26
2022-09-01T06:36:56.319Z,13.29
2022-09-01T06:38:02.140Z,13.31
2022-09-01T06:39:26.512Z,13.35
2022-09-01T06:40:29.085Z,13.38
2022-09-01T06:41:31.531Z,13.41
2022-09-01T06:42:35.267Z,13.43
2022-09-01T06:43:37.127Z,13.50
2022-09-01T06:44:41.984Z,13.55
2022-09-01T06:45:54.194Z,13.62
2022-09-01T06:46:57.194Z,13.70
2022-09-01T06:48:01.285Z,13.73
2022-09-01T06:49:03.941Z,13.73
2022-09-01T06:50:08.573Z,13.73
2022-09-01T06:51:16.117Z,13.75
2022-09-01T06:52:21.235Z,13.80
2022-09-01T06:54:46.105Z,13.87
2022-09-01T06:55:50.094Z,13.90
2022-09-01T06:56:53.527Z,13.95
2022-09-01T06:58:03.937Z,14.02
2022-09-01T06:59:07.978Z,14.10
2022-09-01T07:00:20.872Z,14.16
2022-09-01T07:01:24.307Z,14.21
2022-09-01T07:02:27.320Z,14.24
2022-09-01T07:04:20.219Z,14.25
2022-09-01T07:07:01.812Z,14.26
2022-09-01T07:10:18.578Z,14.40
2022-09-01T07:13:07.362Z,14.46
2022-09-01T07:14:16.674Z,14.49
2022-09-01T07:16:51.789Z,14.62
2022-09-01T07:17:58.281Z,14.67
2022-09-01T07:19:02.203Z,14.71
2022-09-01T07:21:40.951Z,14.77
2022-09-01T07:23:14.183Z,14.82
2022-09-01T07:24:10.419Z,14.86
2022-09-01T07:25:14.309Z,14.85
2022-09-01T07:26:47.277Z,14.82
2022-09-01T07:27:50.550Z,14.85
2022-09-01T07:29:00.939Z,14.88
2022-09-01T07:30:03.803Z,14.96
2022-09-01T07:32:47.539Z,15.08
2022-09-01T07:33:54.319Z,15.11
2022-09-01T07:34:56.808Z,15.15
2022-09-01T07:42:56.886Z,15.18
2022-09-01T07:42:57.573Z,13.84
2022-09-01T07:43:37.601Z,15.32
2022-09-01T07:45:35.211Z,15.39
2022-09-01T07:46:40.409Z,15.42
2022-09-01T07:47:53.580Z,15.40
2022-09-01T07:49:29.635Z,15.36
2022-09-01T07:51:44.129Z,15.34
2022-09-01T07:52:49.579Z,15.35
2022-09-01T07:53:51.361Z,15.36
2022-09-01T07:54:53.169Z,15.39
2022-09-01T07:55:56.354Z,15.43
2022-09-01T07:56:58.206Z,15.50
2022-09-01T07:57:59.954Z,15.57
2022-09-01T07:59:02.248Z,15.58
2022-09-01T08:00:06.526Z,15.60
2022-09-01T08:01:24.406Z,15.66
2022-09-01T08:02:28.002Z,15.68
2022-09-01T08:03:31.062Z,15.71
2022-09-01T08:04:34.517Z,15.76
2022-09-01T08:05:36.442Z,15.79
2022-09-01T08:06:38.750Z,15.84
2022-09-01T08:07:57.653Z,15.92
2022-09-01T08:09:12.259Z,16.05
2022-09-01T08:10:33.593Z,16.17
2022-09-01T08:11:58.572Z,16.17
2022-09-01T08:12:58.341Z,16.10
2022-09-01T08:14:01.293Z,16.02
2022-09-01T08:15:13.874Z,16.03
2022-09-01T08:16:39.319Z,16.02
2022-09-01T08:17:52.184Z,16.02
2022-09-01T08:18:57.079Z,15.92
2022-09-01T08:20:03.312Z,15.89
2022-09-01T08:21:27.013Z,15.95
2022-09-01T08:22:38.090Z,16.01
2022-09-01T08:23:54.898Z,16.11
2022-09-01T08:24:57.094Z,16.17
2022-09-01T08:25:58.935Z,16.25
2022-09-01T08:27:00.594Z,16.36
2022-09-01T08:28:06.894Z,16.49
2022-09-01T08:29:09.541Z,16.61
2022-09-01T08:30:15.845Z,16.65
2022-09-01T08:31:20.284Z,16.65
2022-09-01T08:32:22.972Z,16.71
2022-09-01T08:33:26.066Z,16.74
2022-09-01T08:34:28.078Z,16.68
2022-09-01T08:35:29.801Z,16.67
2022-09-01T08:36:35.413Z,16.60
2022-09-01T08:37:38.404Z,16.52
2022-09-01T08:38:41.435Z,16.50
2022-09-01T08:39:43.683Z,16.57
2022-09-01T08:40:56.370Z,16.65
2022-09-01T08:42:20.182Z,16.75
2022-09-01T08:43:36.975Z,16.86
2022-09-01T08:44:55.170Z,16.99
2022-09-01T08:46:04.041Z,17.12
2022-09-01T08:47:15.327Z,17.27
2022-09-01T08:49:51.350Z,17.55
2022-09-01T08:51:35.162Z,17.62
2022-09-01T08:52:44.698Z,17.65
2022-09-01T08:53:59.814Z,17.55
2022-09-01T08:55:31.918Z,17.41
2022-09-01T08:56:37.489Z,17.40
2022-09-01T08:57:44.280Z,17.35
2022-09-01T09:01:04.874Z,17.48
2022-09-01T09:02:33.801Z,17.45
2022-09-01T09:03:54.014Z,17.60
2022-09-01T09:04:58.673Z,17.78
2022-09-01T09:06:41.835Z,17.92
2022-09-01T09:08:17.241Z,18.21
2022-09-01T09:09:19.273Z,18.46
2022-09-01T09:11:01.438Z,18.61
2022-09-01T09:12:10.831Z,18.72
2022-09-01T09:13:40.835Z,18.74
2022-09-01T09:15:06.969Z,18.62
2022-09-01T09:16:26.162Z,18.55
2022-09-01T09:17:37.298Z,18.53
2022-09-01T09:18:55.861Z,18.50
2022-09-01T09:19:58.052Z,18.33
2022-09-01T09:21:27.677Z,18.14
2022-09-01T09:22:29.398Z,17.86
2022-09-01T09:23:39.397Z,17.69
2022-09-01T09:25:08.425Z,17.59
2022-09-01T09:26:10.105Z,17.58
2022-09-01T09:27:30.740Z,17.63
2022-09-01T09:28:32.466Z,17.76
2022-09-01T09:29:34.425Z,17.83
2022-09-01T09:30:38.389Z,17.97
2022-09-01T09:31:49.924Z,18.15
2022-09-01T09:34:39.718Z,18.61
2022-09-01T09:35:44.246Z,18.74
2022-09-01T09:36:53.893Z,18.79
2022-09-01T09:38:29.054Z,18.92
2022-09-01T09:39:31.005Z,19.12
2022-09-01T09:40:47.892Z,19.18
2022-09-01T09:42:12.082Z,19.10
2022-09-01T09:43:16.145Z,19.18
2022-09-01T09:44:29.413Z,19.15
2022-09-01T09:45:41.614Z,19.06
2022-09-01T09:46:47.473Z,18.98
2022-09-01T09:47:49.599Z,18.99
2022-09-01T09:49:15.381Z,18.89
2022-09-01T09:50:17.427Z,18.71
2022-09-01T09:51:22.774Z,18.56
2022-09-01T09:52:24.509Z,18.40
2022-09-01T09:53:29.955Z,18.23
2022-09-01T09:54:33.852Z,18.07
2022-09-01T09:55:35.779Z,17.94
2022-09-01T09:56:37.638Z,17.83
2022-09-01T09:57:41.768Z,17.73
2022-09-01T09:58:46.693Z,17.70
2022-09-01T10:00:00.808Z,17.65
2022-09-01T10:01:05.889Z,17.54
2022-09-01T10:02:33.793Z,17.56
2022-09-01T10:03:45.047Z,17.71
2022-09-01T10:04:46.814Z,17.87
2022-09-01T10:05:52.828Z,18.02
2022-09-01T10:06:55.578Z,18.18
2022-09-01T10:07:58.403Z,18.35
2022-09-01T10:09:08.261Z,18.54
2022-09-01T10:10:40.402Z,18.74
2022-09-01T10:11:48.277Z,18.97
2022-09-01T10:12:56.677Z,19.04
2022-09-01T10:13:58.915Z,19.01
2022-09-01T10:15:07.100Z,18.98
2022-09-01T10:16:26.881Z,18.91
2022-09-01T10:17:35.933Z,18.83
2022-09-01T10:18:41.798Z,18.83
2022-09-01T10:19:54.207Z,18.88
2022-09-01T10:21:04.234Z,18.96
2022-09-01T10:22:08.329Z,19.07
2022-09-01T10:23:15.251Z,19.15
2022-09-01T10:24:32.045Z,19.20
2022-09-01T10:25:35.666Z,19.22
2022-09-01T10:26:41.250Z,19.24
2022-09-01T10:27:51.160Z,19.30
2022-09-01T10:29:01.803Z,19.47
2022-09-01T10:30:19.809Z,19.57
2022-09-01T10:31:22.847Z,19.60
2022-09-01T10:32:50.800Z,19.67
2022-09-01T10:33:58.641Z,19.82
2022-09-01T10:35:03.177Z,19.94
2022-09-01T10:36:07.833Z,20.03
2022-09-01T10:37:15.890Z,20.10
2022-09-01T10:38:23.198Z,20.14
2022-09-01T10:39:30.514Z,20.15
2022-09-01T10:40:49.648Z,20.10
2022-09-01T10:41:59.733Z,20.10
2022-09-01T10:43:26.157Z,20.15
2022-09-01T10:44:58.205Z,20.17
2022-09-01T10:46:06.048Z,19.92
2022-09-01T10:47:14.696Z,19.63
2022-09-01T10:48:30.487Z,19.38
2022-09-01T10:49:32.569Z,19.13
2022-09-01T10:50:35.997Z,18.96
2022-09-01T10:51:50.466Z,18.82
2022-09-01T10:52:57.121Z,18.68
2022-09-01T10:54:03.540Z,18.60
2022-09-01T10:55:23.993Z,18.48
2022-09-01T10:56:44.378Z,18.33
2022-09-01T10:59:29.804Z,18.10
2022-09-01T10:59:43.301Z,17.81
2022-09-01T11:01:10.680Z,17.66
2022-09-01T11:02:28.123Z,17.53
2022-09-01T11:03:54.355Z,17.41
2022-09-01T11:04:58.218Z,17.29
2022-09-01T11:06:12.305Z,17.24
2022-09-01T11:07:44.372Z,17.15
2022-09-01T11:09:03.682Z,17.06
2022-09-01T11:10:37.021Z,16.95
2022-09-01T11:11:51.892Z,16.84
2022-09-01T11:13:10.335Z,16.75
2022-09-01T11:14:23.639Z,16.67
2022-09-01T11:15:39.131Z,16.61
2022-09-01T11:16:46.705Z,16.55
2022-09-01T11:17:52.135Z,16.53
2022-09-01T11:18:55.250Z,16.52
2022-09-01T11:20:20.432Z,16.53
2022-09-01T11:21:33.185Z,16.55
2022-09-01T11:22:46.577Z,16.57
2022-09-01T11:23:48.301Z,16.59
2022-09-01T11:25:11.848Z,16.61
2022-09-01T11:26:32.525Z,16.65
2022-09-01T11:27:49.156Z,16.72
2022-09-01T11:28:51.158Z,16.82
2022-09-01T11:30:09.128Z,16.91
2022-09-01T11:31:20.630Z,17.03
2022-09-01T11:32:27.994Z,17.12
2022-09-01T11:33:29.560Z,17.21
2022-09-01T11:34:31.816Z,17.28
2022-09-01T11:35:33.716Z,17.38
2022-09-01T11:36:48.382Z,17.55
2022-09-01T11:37:55.255Z,17.73
2022-09-01T11:39:17.570Z,17.83
2022-09-01T11:40:29.628Z,17.90
2022-09-01T11:41:40.203Z,17.95
2022-09-01T11:42:46.807Z,18.04
2022-09-01T11:43:54.220Z,18.28
2022-09-01T11:45:04.612Z,18.50
2022-09-01T11:46:25.063Z,18.72
2022-09-01T11:47:55.228Z,19.02
2022-09-01T11:48:59.746Z,19.19
2022-09-01T11:50:34.565Z,19.24
2022-09-01T11:51:47.885Z,19.23
2022-09-01T11:52:57.064Z,19.27
2022-09-01T11:54:00.678Z,19.23
2022-09-01T11:55:04.722Z,19.14
2022-09-01T11:56:20.112Z,19.08
2022-09-01T11:57:31.755Z,19.01
2022-09-01T11:58:39.179Z,18.92
2022-09-01T11:59:43.866Z,18.86
2022-09-01T12:00:45.540Z,18.82
2022-09-01T12:01:47.287Z,18.81
2022-09-01T12:02:52.173Z,18.80
2022-09-01T12:03:54.303Z,18.81
2022-09-01T12:04:57.148Z,18.84
2022-09-01T12:06:04.008Z,18.86
2022-09-01T12:07:11.642Z,18.85
2022-09-01T12:08:18.331Z,18.87
2022-09-01T12:09:44.034Z,18.91
2022-09-01T12:10:47.066Z,19.00
2022-09-01T12:11:49.026Z,19.08
2022-09-01T12:13:02.523Z,19.11
2022-09-01T12:14:11.444Z,19.12
2022-09-01T12:15:25.936Z,19.11
2022-09-01T12:16:29.965Z,19.03
2022-09-01T12:17:31.660Z,18.91
2022-09-01T12:18:39.664Z,18.79
2022-09-01T12:19:41.293Z,18.66
2022-09-01T12:20:43.209Z,18.70
2022-09-01T12:21:59.845Z,19.05
2022-09-01T12:23:03.588Z,19.56
2022-09-01T12:24:21.799Z,20.04
2022-09-01T12:25:29.209Z,20.23
2022-09-01T12:26:31.001Z,20.14
2022-09-01T12:27:33.634Z,20.15
2022-09-01T12:28:36.181Z,20.42
2022-09-01T12:29:38.875Z,20.82
2022-09-01T12:30:44.703Z,21.24
2022-09-01T12:31:52.471Z,21.60
2022-09-01T12:34:32.953Z,22.20
2022-09-01T12:35:34.595Z,22.39
2022-09-01T12:36:37.195Z,22.52
2022-09-01T12:37:38.945Z,22.58
2022-09-01T12:38:40.680Z,22.65
2022-09-01T12:39:49.007Z,22.70
2022-09-01T12:40:54.453Z,22.74
2022-09-01T12:42:07.343Z,22.96
2022-09-01T12:43:09.020Z,23.26
2022-09-01T12:44:31.433Z,23.54
2022-09-01T12:45:45.678Z,23.86
2022-09-01T12:46:47.478Z,24.07
2022-09-01T12:47:50.642Z,24.17
2022-09-01T12:48:52.634Z,24.32
2022-09-01T12:49:55.686Z,24.47
2022-09-01T12:51:04.745Z,24.58
2022-09-01T12:52:28.168Z,24.51
2022-09-01T12:53:36.741Z,24.25
2022-09-01T12:54:39.714Z,23.94
2022-09-01T12:56:17.070Z,23.59
2022-09-01T12:57:35.453Z,23.10
2022-09-01T12:58:37.209Z,22.65
2022-09-01T12:59:38.898Z,22.31
2022-09-01T13:00:58.440Z,21.99
2022-09-01T13:02:26.994Z,21.67
2022-09-01T13:03:30.708Z,21.24
2022-09-01T13:04:34.388Z,20.94
2022-09-01T13:06:03.796Z,20.66
2022-09-01T13:07:07.693Z,20.25
2022-09-01T13:08:14.676Z,20.00
2022-09-01T13:09:16.638Z,19.79
2022-09-01T13:10:18.674Z,19.67
2022-09-01T13:11:20.750Z,19.57
2022-09-01T13:12:22.412Z,19.45
2022-09-01T13:13:26.866Z,19.31
2022-09-01T13:14:29.870Z,19.21
2022-09-01T13:15:32.638Z,19.09
2022-09-01T13:16:35.623Z,18.94
2022-09-01T13:17:38.401Z,18.78
2022-09-01T13:20:05.742Z,18.50
2022-09-01T13:21:07.942Z,18.75
2022-09-01T13:22:10.459Z,19.16
2022-09-01T13:23:12.830Z,19.61
2022-09-01T13:24:14.751Z,20.09
2022-09-01T13:25:20.267Z,20.62
2022-09-01T13:26:22.568Z,21.09
2022-09-01T13:27:24.381Z,21.43
2022-09-01T13:28:27.011Z,21.73
2022-09-01T13:29:28.750Z,22.01
2022-09-01T13:30:30.470Z,22.26
2022-09-01T13:31:32.659Z,22.48
2022-09-01T13:32:34.944Z,22.66
2022-09-01T13:34:09.300Z,22.87
2022-09-01T13:34:58.644Z,23.07
2022-09-01T13:36:42.816Z,23.17
2022-09-01T13:37:24.379Z,23.39
2022-09-01T13:38:26.168Z,23.59
2022-09-01T13:39:27.845Z,23.78
2022-09-01T13:40:31.065Z,24.04
2022-09-01T13:41:32.813Z,24.32
2022-09-01T13:42:34.811Z,24.51
2022-09-01T13:43:37.469Z,24.61
2022-09-01T13:44:42.545Z,24.60
2022-09-01T13:45:45.233Z,24.59
2022-09-01T13:48:17.449Z,24.87
2022-09-01T13:52:04.045Z,24.79
2022-09-01T13:53:06.662Z,24.84
2022-09-01T13:54:08.382Z,24.57
2022-09-01T13:55:14.197Z,24.07
2022-09-01T13:56:15.854Z,23.98
2022-09-01T13:57:17.854Z,23.80
2022-09-01T13:58:20.383Z,23.90
2022-09-01T13:59:22.589Z,24.11
2022-09-01T14:00:29.318Z,24.13
2022-09-01T14:01:31.028Z,23.89
2022-09-01T14:02:32.696Z,23.58
2022-09-01T14:03:34.445Z,23.69
2022-09-01T14:04:36.315Z,23.96
2022-09-01T14:05:42.291Z,24.16
2022-09-01T14:06:44.838Z,24.01
2022-09-01T14:07:48.838Z,23.71
2022-09-01T14:08:50.529Z,23.34
2022-09-01T14:09:52.177Z,22.97
2022-09-01T14:10:54.354Z,22.66
2022-09-01T14:11:57.055Z,22.36
2022-09-01T14:13:00.342Z,22.02
2022-09-01T14:14:02.517Z,21.71
2022-09-01T14:15:16.621Z,21.39
2022-09-01T14:16:19.720Z,21.02
2022-09-01T14:17:21.472Z,20.76
2022-09-01T14:18:23.232Z,20.51
2022-09-01T14:19:24.911Z,20.25
2022-09-01T14:20:36.072Z,20.07
2022-09-01T14:21:39.424Z,19.86
2022-09-01T14:22:41.594Z,19.68
2022-09-01T14:23:45.796Z,19.50
2022-09-01T14:24:47.859Z,19.30
2022-09-01T14:25:52.654Z,19.13
2022-09-01T14:26:54.319Z,18.97
2022-09-01T14:27:57.178Z,18.84
2022-09-01T14:29:02.543Z,18.72
2022-09-01T14:30:09.107Z,18.60
2022-09-01T14:31:12.481Z,18.49
2022-09-01T14:32:14.144Z,18.40
2022-09-01T14:33:16.931Z,18.30
2022-09-01T14:34:18.982Z,18.21
2022-09-01T14:35:24.813Z,18.14
2022-09-01T14:36:27.020Z,18.06
2022-09-01T14:37:28.794Z,18.00
2022-09-01T14:38:32.131Z,17.95
2022-09-01T14:39:34.137Z,17.89
2022-09-01T14:40:38.074Z,17.84
2022-09-01T14:41:39.824Z,17.81
2022-09-01T14:42:48.990Z,17.80
2022-09-01T14:43:59.749Z,17.78
2022-09-01T14:45:05.028Z,17.77
2022-09-01T14:46:10.811Z,17.77
2022-09-01T14:47:19.137Z,17.76
2022-09-01T14:48:21.974Z,17.76
2022-09-01T14:49:24.301Z,17.78
2022-09-01T14:50:29.039Z,17.81
2022-09-01T14:52:56.350Z,17.94
2022-09-01T14:53:58.190Z,17.96
2022-09-01T14:54:59.919Z,17.94
2022-09-01T14:56:03.076Z,17.92
2022-09-01T14:58:29.662Z,17.90
2022-09-01T14:59:32.150Z,17.90